createdAt,value
2019-04-16T00:00:37.366Z,8.03
2019-04-16T00:05:47.253Z,7.23
2019-04-16T00:11:00.073Z,7.23
2019-04-16T00:16:07.576Z,7.40
2019-04-16T00:21:31.022Z,6.30
2019-04-16T00:26:38.074Z,7.97
2019-04-16T00:31:53.493Z,7.90
2019-04-16T00:36:59.534Z,7.63
2019-04-16T00:42:07.189Z,7.67
2019-04-16T00:47:14.536Z,7.60
2019-04-16T00:52:22.034Z,7.07
2019-04-16T00:57:30.961Z,6.70
2019-04-16T01:02:38.585Z,6.40
2019-04-16T01:07:45.368Z,6.80
2019-04-16T01:12:54.908Z,6.50
2019-04-16T01:18:00.956Z,5.97
2019-04-16T01:23:08.580Z,6.10
2019-04-16T01:28:16.797Z,5.77
2019-04-16T01:33:40.556Z,5.53
2019-04-16T01:39:10.962Z,4.60
2019-04-16T01:44:04.533Z,4.77
2019-04-16T01:49:12.087Z,4.90
2019-04-16T01:54:22.542Z,4.60
2019-04-16T01:59:28.856Z,4.47
2019-04-16T02:04:35.998Z,4.37
2019-04-16T02:09:42.949Z,3.90
2019-04-16T02:14:51.018Z,3.93
2019-04-16T02:19:57.098Z,3.90
2019-04-16T02:25:04.070Z,4.23
2019-04-16T02:30:11.116Z,4.07
2019-04-16T02:35:17.811Z,4.43
2019-04-16T02:40:23.815Z,4.47
2019-04-16T02:45:31.323Z,4.27
2019-04-16T02:50:56.435Z,4.40
2019-04-16T02:56:22.610Z,4.90
2019-04-16T03:01:49.408Z,4.13
2019-04-16T03:06:55.187Z,5.10
2019-04-16T03:12:04.926Z,5.67
2019-04-16T03:17:29.204Z,6.20
2019-04-16T03:22:36.007Z,6.13
2019-04-16T03:27:42.853Z,6.23
2019-04-16T03:32:53.267Z,6.27
2019-04-16T03:38:01.626Z,6.53
2019-04-16T03:43:09.941Z,6.90
2019-04-16T03:48:17.609Z,7.23
2019-04-16T03:53:24.562Z,6.67
2019-04-16T03:58:31.578Z,6.63
2019-04-16T04:03:42.460Z,6.73
2019-04-16T04:08:53.082Z,6.50
2019-04-16T04:13:59.331Z,7.30
2019-04-16T04:19:14.029Z,7.77
2019-04-16T04:24:19.192Z,7.73
2019-04-16T04:29:29.134Z,6.90
2019-04-16T04:34:36.122Z,6.90
2019-04-16T04:39:47.250Z,7.10
2019-04-16T04:44:53.903Z,7.40
2019-04-16T04:50:03.562Z,7.23
2019-04-16T04:55:10.171Z,6.83
2019-04-16T05:00:18.637Z,7.03
2019-04-16T05:05:33.056Z,6.57
2019-04-16T05:10:45.343Z,7.10
2019-04-16T05:15:52.309Z,7.10
2019-04-16T05:21:00.181Z,7.67
2019-04-16T05:26:09.798Z,7.50
2019-04-16T05:31:16.119Z,7.60
2019-04-16T05:36:22.191Z,11.00
2019-04-16T05:41:29.687Z,8.40
2019-04-16T05:46:38.352Z,8.13
2019-04-16T05:51:44.614Z,8.20
2019-04-16T05:56:55.496Z,8.53
2019-04-16T06:02:18.186Z,8.67
2019-04-16T06:07:24.332Z,7.90
2019-04-16T06:12:43.254Z,8.70
2019-04-16T06:18:17.482Z,9.77
2019-04-16T06:23:40.773Z,7.20
2019-04-16T06:29:13.645Z,8.10
2019-04-16T06:34:34.587Z,8.47
2019-04-16T06:40:00.637Z,7.40
2019-04-16T06:45:17.486Z,8.10
2019-04-16T06:50:40.989Z,7.80
2019-04-16T06:56:10.412Z,7.60
2019-04-16T07:01:36.812Z,8.30
2019-04-16T07:07:07.857Z,7.17
2019-04-16T07:12:17.177Z,7.30
2019-04-16T07:17:24.613Z,6.30
2019-04-16T07:22:31.490Z,5.97
2019-04-16T07:27:45.086Z,6.90
2019-04-16T07:33:13.683Z,6.43
2019-04-16T07:38:57.687Z,6.27
2019-04-16T07:44:13.832Z,6.60
2019-04-16T07:49:43.119Z,6.67
2019-04-16T07:55:13.850Z,7.97
2019-04-16T08:00:21.546Z,5.40
2019-04-16T08:05:27.970Z,4.87
2019-04-16T08:10:34.335Z,5.97
2019-04-16T08:15:41.565Z,4.43
2019-04-16T08:21:00.570Z,5.07
2019-04-16T08:26:03.524Z,5.40
2019-04-16T08:31:10.770Z,4.97
2019-04-16T08:36:16.309Z,5.50
2019-04-16T08:41:23.682Z,4.87
2019-04-16T08:46:30.903Z,6.00
2019-04-16T08:51:38.649Z,4.40
2019-04-16T08:56:44.672Z,5.00
2019-04-16T09:01:51.372Z,4.10
2019-04-16T09:07:11.432Z,5.13
2019-04-16T09:12:11.942Z,4.90
2019-04-16T09:17:28.858Z,5.50
2019-04-16T09:22:48.296Z,5.57
2019-04-16T09:27:46.538Z,5.37
2019-04-16T09:33:01.024Z,5.40
2019-04-16T09:38:26.523Z,4.37
2019-04-16T09:43:35.669Z,8.83
2019-04-16T09:48:42.906Z,5.70
2019-04-16T09:53:50.297Z,4.50
2019-04-16T09:59:01.643Z,7.20
2019-04-16T10:04:11.216Z,5.37
2019-04-16T10:09:21.949Z,4.67
2019-04-16T10:14:29.197Z,6.20
2019-04-16T10:19:37.088Z,6.30
2019-04-16T10:25:00.647Z,6.33
2019-04-16T10:30:24.747Z,5.07
2019-04-16T10:35:32.882Z,5.27
2019-04-16T10:40:43.307Z,5.70
2019-04-16T10:46:27.450Z,5.87
2019-04-16T10:51:56.014Z,5.47
2019-04-16T10:57:26.343Z,5.53
2019-04-16T11:02:41.554Z,5.70
2019-04-16T11:07:51.854Z,6.70
2019-04-16T11:12:59.499Z,6.07
2019-04-16T11:18:08.581Z,5.37
2019-04-16T11:23:16.627Z,5.83
2019-04-16T11:28:23.666Z,5.63
2019-04-16T11:33:31.156Z,6.20
2019-04-16T11:38:38.779Z,7.73
2019-04-16T11:43:46.145Z,4.70
2019-04-16T11:48:52.277Z,4.83
2019-04-16T11:54:00.062Z,5.50
2019-04-16T11:59:07.610Z,4.60
2019-04-16T12:04:32.875Z,5.07
2019-04-16T12:09:57.856Z,4.87
2019-04-16T12:15:12.578Z,4.67
2019-04-16T12:20:37.815Z,4.53
2019-04-16T12:26:08.893Z,5.33
2019-04-16T12:31:29.929Z,5.73
2019-04-16T12:37:03.769Z,5.37
2019-04-16T12:42:30.099Z,5.37
2019-04-16T12:47:41.225Z,5.37
2019-04-16T12:53:16.705Z,4.77
2019-04-16T12:58:34.294Z,4.83
2019-04-16T13:03:56.888Z,4.63
2019-04-16T13:09:32.340Z,3.90
2019-04-16T13:15:00.787Z,4.93
2019-04-16T13:20:29.303Z,14.93
2019-04-16T13:25:43.235Z,5.27
2019-04-16T13:30:51.116Z,4.80
2019-04-16T13:35:58.772Z,4.13
2019-04-16T13:41:04.745Z,4.20
2019-04-16T13:46:12.122Z,4.90
2019-04-16T13:51:21.973Z,3.90
2019-04-16T13:56:33.924Z,4.73
2019-04-16T14:01:50.901Z,4.23
2019-04-16T14:06:58.655Z,4.00
2019-04-16T14:12:05.279Z,4.27
2019-04-16T14:17:17.712Z,4.97
2019-04-16T14:22:23.197Z,5.03
2019-04-16T14:27:31.951Z,5.03
2019-04-16T14:32:39.754Z,4.57
2019-04-16T14:37:49.602Z,4.33
2019-04-16T14:43:00.028Z,4.53
2019-04-16T14:48:09.691Z,4.40
2019-04-16T14:53:44.215Z,4.57
2019-04-16T14:59:05.368Z,4.90
2019-04-16T15:04:30.418Z,4.87
2019-04-16T15:10:03.269Z,4.80
2019-04-16T15:15:19.419Z,4.20
2019-04-16T15:20:44.603Z,5.13
2019-04-16T15:26:27.714Z,4.83
2019-04-16T15:31:50.495Z,6.97
2019-04-16T15:37:06.664Z,4.97
2019-04-16T15:42:37.803Z,4.77
2019-04-16T15:48:09.971Z,5.03
2019-04-16T15:53:33.795Z,5.30
2019-04-16T15:59:03.337Z,6.37
2019-04-16T16:04:12.266Z,5.60
2019-04-16T16:09:23.883Z,5.77
2019-04-16T16:14:34.113Z,6.43
2019-04-16T16:19:40.208Z,7.03
2019-04-16T16:24:47.531Z,6.17
2019-04-16T16:29:53.552Z,6.13
2019-04-16T16:35:01.040Z,6.43
2019-04-16T16:40:12.029Z,6.23
2019-04-16T16:45:17.027Z,5.50
2019-04-16T16:50:23.983Z,6.40
2019-04-16T16:55:38.470Z,5.70
2019-04-16T17:00:49.277Z,14.97
2019-04-16T17:05:57.393Z,6.67
2019-04-16T17:11:16.097Z,8.40
2019-04-16T17:16:14.487Z,6.10
2019-04-16T17:21:21.323Z,6.30
2019-04-16T17:26:27.260Z,5.80
2019-04-16T17:31:36.079Z,6.67
2019-04-16T17:36:44.768Z,6.27
2019-04-16T17:42:04.142Z,5.90
2019-04-16T17:47:32.015Z,5.80
2019-04-16T17:52:41.381Z,6.27
2019-04-16T17:58:04.432Z,5.93
2019-04-16T18:03:37.678Z,5.67
2019-04-16T18:09:10.522Z,6.47
2019-04-16T18:14:51.057Z,13.77
2019-04-16T18:20:30.154Z,8.10
2019-04-16T18:25:56.715Z,5.60
2019-04-16T18:31:05.983Z,6.13
2019-04-16T18:36:29.519Z,7.67
2019-04-16T18:41:49.384Z,6.80
2019-04-16T18:47:16.639Z,6.00
2019-04-16T18:52:23.837Z,5.40
2019-04-16T18:57:30.932Z,6.90
2019-04-16T19:02:41.858Z,5.70
2019-04-16T19:07:47.445Z,7.10
2019-04-16T19:12:54.432Z,6.60
2019-04-16T19:18:17.252Z,6.03
2019-04-16T19:23:09.987Z,5.63
2019-04-16T19:28:20.027Z,6.40
2019-04-16T19:33:24.568Z,5.80
2019-04-16T19:38:32.122Z,6.50
2019-04-16T19:43:40.280Z,5.70
2019-04-16T19:48:57.042Z,6.30
2019-04-16T19:54:05.891Z,6.33
2019-04-16T19:59:13.098Z,6.53
2019-04-16T20:04:22.678Z,6.37
2019-04-16T20:09:30.048Z,7.33
2019-04-16T20:14:37.753Z,6.87
2019-04-16T20:19:58.047Z,6.90
2019-04-16T20:25:04.503Z,7.37
2019-04-16T20:30:13.068Z,6.33
2019-04-16T20:35:20.825Z,5.67
2019-04-16T20:40:29.718Z,6.80
2019-04-16T20:45:38.003Z,6.00
2019-04-16T20:50:45.153Z,6.30
2019-04-16T20:55:52.614Z,7.43
2019-04-16T21:01:03.267Z,7.87
2019-04-16T21:06:12.923Z,6.37
2019-04-16T21:11:19.430Z,7.12
2019-04-16T21:16:33.447Z,6.27
2019-04-16T21:21:40.501Z,7.03
2019-04-16T21:26:51.291Z,6.90
2019-04-16T21:32:02.077Z,6.90
2019-04-16T21:37:34.039Z,6.77
2019-04-16T21:42:45.627Z,17.83
2019-04-16T21:47:54.977Z,6.27
2019-04-16T21:53:02.462Z,7.33
2019-04-16T21:58:10.098Z,9.60
2019-04-16T22:03:27.122Z,6.87
2019-04-16T22:08:33.704Z,7.00
2019-04-16T22:13:41.155Z,7.37
2019-04-16T22:18:50.199Z,7.97
2019-04-16T22:23:56.416Z,8.57
2019-04-16T22:29:03.179Z,8.60
2019-04-16T22:34:10.931Z,7.97
2019-04-16T22:39:28.694Z,9.03
2019-04-16T22:44:59.627Z,9.33
2019-04-16T22:50:16.720Z,11.70
2019-04-16T22:55:16.818Z,11.87
2019-04-16T23:00:44.126Z,12.20
2019-04-16T23:05:48.701Z,13.13
2019-04-16T23:10:54.579Z,13.53
2019-04-16T23:16:02.187Z,13.47
2019-04-16T23:21:11.372Z,13.30
2019-04-16T23:26:19.109Z,14.47
2019-04-16T23:31:26.831Z,13.80
2019-04-16T23:36:33.775Z,15.70
2019-04-16T23:41:41.579Z,16.30
2019-04-16T23:47:10.217Z,14.63
2019-04-16T23:52:20.530Z,14.93
2019-04-16T23:57:35.835Z,16.07
